Time;durP1;ratioP1;P1;durP2;ratioP2;P2;SDS_P1;SDS_P2;PMS_P1;PMS_P2;Temp;Humidity;BMP_temperature;BMP_pressure;BME280_temperature;BME280_humidity;BME280_pressure;Samples;Min_cycle;Max_cycle;Signal;HPM_P1;HPM_P2
2024/01/04 00:01:50;;;;;;;0.10;0.10;;;9.70;99.90;;;;;;5019937;28;20812;-77
2024/01/04 00:04:16;;;;;;;0.00;0.00;;;9.80;99.90;;;;;;5021607;28;20467;-77
2024/01/04 00:06:44;;;;;;;0.10;0.10;;;9.80;99.90;;;;;;5018637;28;20034;-77
2024/01/04 00:09:10;;;;;;;0.03;0.03;;;9.90;99.90;;;;;;5019712;28;20705;-77
2024/01/04 00:11:36;;;;;;;3.97;1.35;;;9.90;99.90;;;;;;5021343;28;20061;-77
2024/01/04 00:14:04;;;;;;;0.10;0.10;;;9.90;99.90;;;;;;5021009;28;20535;-77
2024/01/04 00:16:33;;;;;;;2.40;2.30;;;9.90;99.90;;;;;;5021514;28;20057;-77
2024/01/04 00:18:58;;;;;;;0.10;0.10;;;9.90;99.90;;;;;;5018585;28;20025;-77
2024/01/04 00:21:24;;;;;;;0.00;0.00;;;9.80;99.90;;;;;;5026322;28;20500;-77
2024/01/04 00:23:50;;;;;;;0.10;0.10;;;9.80;99.90;;;;;;5030758;28;20601;-77
2024/01/04 00:26:15;;;;;;;0.10;0.10;;;9.80;99.90;;;;;;5023044;28;20079;-78
2024/01/04 00:28:41;;;;;;;0.10;0.10;;;9.70;99.90;;;;;;5019887;28;20033;-77
2024/01/04 00:31:07;;;;;;;0.10;0.10;;;9.70;99.90;;;;;;5020065;28;20032;-77
2024/01/04 00:33:32;;;;;;;0.10;0.10;;;9.70;99.90;;;;;;5021502;28;20022;-76
2024/01/04 00:35:59;;;;;;;0.03;0.03;;;9.60;99.90;;;;;;5023849;28;20033;-76
2024/01/04 00:38:24;;;;;;;0.03;0.03;;;9.50;99.90;;;;;;5016269;28;20018;-77
2024/01/04 00:40:51;;;;;;;0.17;0.17;;;9.60;99.90;;;;;;5023213;28;20610;-77
2024/01/04 00:43:17;;;;;;;0.10;0.10;;;9.60;99.90;;;;;;5023867;28;20041;-77
2024/01/04 00:45:42;;;;;;;0.10;0.10;;;9.50;99.90;;;;;;5021621;28;20487;-77
2024/01/04 00:48:08;;;;;;;0.00;0.00;;;9.30;99.90;;;;;;5017403;28;20068;-76
2024/01/04 00:50:34;;;;;;;0.50;0.50;;;9.10;99.90;;;;;;5023938;28;20025;-77
2024/01/04 00:53:01;;;;;;;3.53;0.73;;;9.10;99.90;;;;;;5019912;28;20248;-77
2024/01/04 00:55:27;;;;;;;0.10;0.10;;;9.20;99.90;;;;;;5019248;28;20038;-77
2024/01/04 00:57:53;;;;;;;0.10;0.10;;;9.30;99.90;;;;;;5018917;28;20026;-77
2024/01/04 01:00:18;;;;;;;0.10;0.10;;;9.40;99.90;;;;;;5023409;28;20091;-77
2024/01/04 01:02:44;;;;;;;0.00;0.00;;;9.10;99.90;;;;;;5019905;28;20025;-78
2024/01/04 01:05:10;;;;;;;0.10;0.10;;;8.90;99.90;;;;;;5024452;28;20025;-78
2024/01/04 01:07:35;;;;;;;0.00;0.00;;;8.80;99.90;;;;;;5024527;28;20040;-78
2024/01/04 01:10:01;;;;;;;0.00;0.00;;;9.00;99.90;;;;;;5024129;28;20021;-78
2024/01/04 01:12:27;;;;;;;0.10;0.10;;;9.10;99.90;;;;;;5017169;28;20060;-77
2024/01/04 01:14:53;;;;;;;0.10;0.10;;;9.10;99.90;;;;;;5019556;28;20042;-77
2024/01/04 01:17:19;;;;;;;0.10;0.10;;;9.00;99.90;;;;;;5022859;28;20033;-77
2024/01/04 01:19:44;;;;;;;0.10;0.10;;;8.90;99.90;;;;;;5018156;28;20029;-78
2024/01/04 01:22:10;;;;;;;0.10;0.10;;;8.80;99.90;;;;;;5024468;28;20810;-78
2024/01/04 01:24:36;;;;;;;0.00;0.00;;;8.60;99.90;;;;;;5024117;28;20564;-78
2024/01/04 01:27:02;;;;;;;0.10;0.10;;;8.50;99.90;;;;;;5023662;28;20671;-77
2024/01/04 01:29:27;;;;;;;0.10;0.10;;;8.40;99.90;;;;;;5018179;28;20026;-77
2024/01/04 01:31:53;;;;;;;0.10;0.10;;;8.40;99.90;;;;;;5022584;28;20387;-77
2024/01/04 01:34:19;;;;;;;2.70;1.33;;;8.50;99.90;;;;;;5024504;28;20056;-77
2024/01/04 01:36:45;;;;;;;0.10;0.10;;;8.50;99.90;;;;;;5022809;28;20099;-77
2024/01/04 01:39:11;;;;;;;0.30;0.30;;;8.40;99.90;;;;;;5021993;28;20025;-77
2024/01/04 01:41:37;;;;;;;2.35;2.17;;;8.30;99.90;;;;;;5023153;28;20057;-78
2024/01/04 01:44:03;;;;;;;0.10;0.10;;;8.20;99.90;;;;;;5023028;28;20736;-78
2024/01/04 01:46:29;;;;;;;0.10;0.10;;;8.20;99.90;;;;;;5022668;28;20980;-77
2024/01/04 01:48:55;;;;;;;0.10;0.10;;;8.20;99.90;;;;;;5024244;28;20032;-78
2024/01/04 01:51:20;;;;;;;0.00;0.00;;;8.20;99.90;;;;;;5021352;28;20268;-77
2024/01/04 01:53:46;;;;;;;0.10;0.10;;;8.10;99.90;;;;;;5012530;28;20105;-77
2024/01/04 01:56:12;;;;;;;0.10;0.10;;;8.20;99.90;;;;;;5020794;28;20029;-77
2024/01/04 01:58:38;;;;;;;0.10;0.10;;;8.20;99.90;;;;;;5018611;28;20040;-78
2024/01/04 02:01:04;;;;;;;0.10;0.10;;;8.20;99.90;;;;;;5023457;28;20183;-78
2024/01/04 02:03:30;;;;;;;0.10;0.10;;;8.10;99.90;;;;;;5021501;28;20044;-77
2024/01/04 02:05:55;;;;;;;0.10;0.10;;;8.10;99.90;;;;;;5022485;28;20037;-77
2024/01/04 02:08:21;;;;;;;0.10;0.10;;;8.40;99.90;;;;;;5022439;28;20026;-77
2024/01/04 02:10:47;;;;;;;0.10;0.10;;;8.70;99.90;;;;;;5017649;28;20030;-77
2024/01/04 02:13:13;;;;;;;0.10;0.10;;;8.90;99.90;;;;;;5021241;28;20528;-77
2024/01/04 02:15:38;;;;;;;0.10;0.10;;;9.00;99.90;;;;;;5022395;28;20513;-77
2024/01/04 02:18:04;;;;;;;0.05;0.05;;;9.10;99.90;;;;;;5022648;28;20370;-77
2024/01/04 02:20:30;;;;;;;0.10;0.10;;;9.10;99.90;;;;;;5025556;28;20028;-77
2024/01/04 02:22:56;;;;;;;0.10;0.10;;;9.10;99.90;;;;;;5022366;28;20084;-77
2024/01/04 02:25:21;;;;;;;13.30;1.55;;;9.00;99.90;;;;;;5023448;28;20516;-77
2024/01/04 02:27:47;;;;;;;0.10;0.10;;;8.90;99.90;;;;;;5016678;28;20223;-77
2024/01/04 02:30:13;;;;;;;0.10;0.10;;;9.00;99.90;;;;;;5018272;28;20105;-78
2024/01/04 02:32:39;;;;;;;0.10;0.10;;;9.00;99.90;;;;;;5023742;28;20068;-77
2024/01/04 02:35:05;;;;;;;0.10;0.10;;;9.10;99.90;;;;;;5020709;28;20067;-77
2024/01/04 02:37:30;;;;;;;0.05;0.05;;;9.10;99.90;;;;;;5016119;28;20120;-77
2024/01/04 02:39:56;;;;;;;0.10;0.10;;;9.00;99.90;;;;;;5022595;28;20030;-77
2024/01/04 02:42:22;;;;;;;0.20;0.20;;;8.60;99.90;;;;;;5021968;28;20124;-78
2024/01/04 02:44:47;;;;;;;1.07;1.07;;;8.40;99.90;;;;;;5022008;28;20464;-78
2024/01/04 02:47:13;;;;;;;0.10;0.10;;;8.50;99.90;;;;;;5021670;28;20054;-77
2024/01/04 02:49:39;;;;;;;0.10;0.10;;;8.60;99.90;;;;;;5020146;28;20088;-77
2024/01/04 02:52:05;;;;;;;1.38;1.27;;;8.60;99.90;;;;;;5019930;28;20092;-77
2024/01/04 02:54:31;;;;;;;1.70;1.60;;;8.70;99.90;;;;;;5013824;28;20092;-77
2024/01/04 02:56:56;;;;;;;0.73;0.68;;;8.60;99.90;;;;;;5015281;28;20095;-78
2024/01/04 02:59:22;;;;;;;1.17;1.17;;;8.50;99.90;;;;;;5017386;28;20033;-77
2024/01/04 03:01:48;;;;;;;0.10;0.10;;;8.30;99.90;;;;;;5022179;28;20782;-77
2024/01/04 03:04:15;;;;;;;0.20;0.20;;;8.40;99.90;;;;;;5022043;28;20026;-77
2024/01/04 03:06:41;;;;;;;0.10;0.10;;;8.50;99.90;;;;;;5017994;28;20049;-77
2024/01/04 03:09:07;;;;;;;0.10;0.10;;;8.40;99.90;;;;;;5021940;28;20215;-76
2024/01/04 03:11:33;;;;;;;0.08;0.08;;;8.20;99.90;;;;;;5022390;28;20687;-77
2024/01/04 03:13:58;;;;;;;0.10;0.10;;;8.10;99.90;;;;;;5021308;28;20097;-77
2024/01/04 03:16:24;;;;;;;0.10;0.10;;;7.90;99.90;;;;;;5021821;28;20399;-77
2024/01/04 03:18:50;;;;;;;0.10;0.10;;;8.00;99.90;;;;;;5022580;28;20033;-77
2024/01/04 03:21:16;;;;;;;0.10;0.10;;;7.90;99.90;;;;;;5029158;28;20398;-77
2024/01/04 03:23:42;;;;;;;0.10;0.10;;;7.90;99.90;;;;;;5021995;28;20033;-77
2024/01/04 03:26:08;;;;;;;0.10;0.10;;;8.00;99.90;;;;;;5022388;28;20044;-77
2024/01/04 03:28:34;;;;;;;0.10;0.10;;;7.90;99.90;;;;;;5018098;28;20113;-77
2024/01/04 03:31:00;;;;;;;0.10;0.10;;;8.00;99.90;;;;;;5020607;28;20034;-77
2024/01/04 03:33:25;;;;;;;0.20;0.20;;;8.20;99.90;;;;;;5021177;28;20877;-77
2024/01/04 03:35:51;;;;;;;0.10;0.10;;;8.40;99.90;;;;;;5021637;28;20660;-77
2024/01/04 03:38:17;;;;;;;0.10;0.10;;;8.50;99.90;;;;;;5020253;28;20034;-77
2024/01/04 03:40:42;;;;;;;0.93;0.88;;;8.60;99.90;;;;;;5021407;28;20049;-77
2024/01/04 03:43:08;;;;;;;0.15;0.15;;;8.50;99.90;;;;;;5018648;28;20497;-77
2024/01/04 03:45:34;;;;;;;0.15;0.15;;;8.40;99.90;;;;;;5024677;28;20400;-77
2024/01/04 03:48:00;;;;;;;0.03;0.03;;;8.30;99.90;;;;;;5023149;28;20746;-78
2024/01/04 03:50:26;;;;;;;0.10;0.10;;;8.30;99.90;;;;;;5020611;28;20141;-78
2024/01/04 03:52:52;;;;;;;0.10;0.10;;;8.50;99.90;;;;;;5019295;28;20026;-77
2024/01/04 03:55:18;;;;;;;0.10;0.10;;;8.70;99.90;;;;;;5009101;28;20061;-77
2024/01/04 03:57:44;;;;;;;0.10;0.10;;;8.80;99.90;;;;;;5018924;28;20183;-77
2024/01/04 04:00:10;;;;;;;0.30;0.30;;;8.90;99.90;;;;;;5016521;28;20291;-77
2024/01/04 04:02:36;;;;;;;0.55;0.38;;;8.90;99.90;;;;;;5017731;28;20026;-77
2024/01/04 04:05:02;;;;;;;0.10;0.10;;;9.00;99.90;;;;;;5017831;28;20036;-77
2024/01/04 04:07:28;;;;;;;0.00;0.00;;;9.00;99.90;;;;;;5014621;28;20041;-77
2024/01/04 04:09:54;;;;;;;0.00;0.00;;;9.00;99.90;;;;;;5019067;28;20060;-77
2024/01/04 04:12:20;;;;;;;0.10;0.10;;;9.00;99.90;;;;;;5019460;28;20887;-77
2024/01/04 04:14:45;;;;;;;0.30;0.30;;;9.00;99.90;;;;;;5020749;28;20037;-77
2024/01/04 04:17:12;;;;;;;0.00;0.00;;;8.80;99.90;;;;;;5019257;28;20643;-77
2024/01/04 04:19:38;;;;;;;0.10;0.10;;;8.80;99.90;;;;;;5019945;28;20032;-77
2024/01/04 04:22:03;;;;;;;0.07;0.07;;;8.90;99.90;;;;;;5018969;28;20033;-77
2024/01/04 04:24:30;;;;;;;0.10;0.10;;;8.90;99.90;;;;;;5018745;28;20033;-77
2024/01/04 04:26:56;;;;;;;0.10;0.10;;;8.90;99.90;;;;;;5020715;28;20044;-77
2024/01/04 04:29:21;;;;;;;0.10;0.10;;;9.00;99.90;;;;;;5015259;28;20030;-77
2024/01/04 04:31:50;;;;;;;0.10;0.10;;;9.00;99.90;;;;;;5022033;28;20034;-77
2024/01/04 04:34:16;;;;;;;0.10;0.10;;;8.90;99.90;;;;;;5020137;28;20061;-77
2024/01/04 04:36:41;;;;;;;0.10;0.10;;;9.00;99.90;;;;;;5018647;28;20112;-78
2024/01/04 04:39:08;;;;;;;0.20;0.20;;;8.90;99.90;;;;;;5021717;28;20041;-77
2024/01/04 04:41:34;;;;;;;;;;;8.90;99.90;;;;;;5020592;28;20077;-77
2024/01/04 04:44:00;;;;;;;0.10;0.10;;;8.90;99.90;;;;;;5021413;28;19956;-77
2024/01/04 04:46:26;;;;;;;0.10;0.10;;;8.90;99.90;;;;;;5021330;28;20288;-77
2024/01/04 04:48:55;;;;;;;0.10;0.10;;;8.90;99.90;;;;;;5016518;28;20065;-77
2024/01/04 04:51:25;;;;;;;0.30;0.30;;;8.90;99.90;;;;;;5019569;28;20033;-78
2024/01/04 04:53:53;;;;;;;0.65;0.65;;;8.90;99.90;;;;;;5014977;28;20033;-79
2024/01/04 04:56:19;;;;;;;0.10;0.10;;;8.80;99.90;;;;;;5012964;28;20021;-77
2024/01/04 04:58:45;;;;;;;0.10;0.10;;;8.70;99.90;;;;;;5017647;28;20040;-78
2024/01/04 05:01:10;;;;;;;0.10;0.10;;;8.80;99.90;;;;;;5016094;28;20034;-78
2024/01/04 05:03:36;;;;;;;0.10;0.10;;;8.60;99.90;;;;;;5018327;28;20067;-77
2024/01/04 05:06:02;;;;;;;0.10;0.10;;;8.40;99.90;;;;;;5021082;28;20450;-77
2024/01/04 05:08:28;;;;;;;0.10;0.10;;;8.20;99.90;;;;;;5024437;28;20041;-77
2024/01/04 05:10:54;;;;;;;0.10;0.10;;;8.10;99.90;;;;;;5022681;28;20029;-78
2024/01/04 05:13:20;;;;;;;0.10;0.10;;;8.10;99.90;;;;;;5024295;28;20876;-78
2024/01/04 05:15:45;;;;;;;0.10;0.10;;;8.10;99.90;;;;;;5023661;28;20104;-78
2024/01/04 05:18:11;;;;;;;0.00;0.00;;;8.00;99.90;;;;;;5019468;28;20105;-78
2024/01/04 05:20:37;;;;;;;0.00;0.00;;;7.90;99.90;;;;;;5020039;28;20029;-78
2024/01/04 05:23:03;;;;;;;0.10;0.10;;;8.00;99.90;;;;;;5023142;28;20721;-77
2024/01/04 05:25:28;;;;;;;0.10;0.10;;;8.30;99.90;;;;;;5024111;28;20523;-77
2024/01/04 05:27:54;;;;;;;0.00;0.00;;;8.30;99.90;;;;;;5017050;28;20030;-78
2024/01/04 05:30:20;;;;;;;0.10;0.10;;;8.30;99.90;;;;;;5021228;28;20104;-77
2024/01/04 05:32:45;;;;;;;0.10;0.10;;;8.50;99.90;;;;;;5021493;28;20029;-77
2024/01/04 05:35:11;;;;;;;0.10;0.10;;;8.60;99.90;;;;;;5020654;28;20033;-77
2024/01/04 05:37:38;;;;;;;0.10;0.10;;;8.70;99.90;;;;;;5023515;28;20780;-77
2024/01/04 05:40:04;;;;;;;0.00;0.00;;;8.80;99.90;;;;;;5021937;28;20034;-78
2024/01/04 05:42:30;;;;;;;0.10;0.10;;;8.80;99.90;;;;;;5024324;28;20046;-76
2024/01/04 05:44:55;;;;;;;0.20;0.20;;;8.90;99.90;;;;;;5020265;28;20041;-76
2024/01/04 05:47:21;;;;;;;0.08;0.08;;;8.90;99.90;;;;;;5024182;28;20037;-77
2024/01/04 05:49:47;;;;;;;0.10;0.10;;;8.80;99.90;;;;;;5021377;28;20087;-76
2024/01/04 05:52:12;;;;;;;2.22;2.03;;;8.90;99.90;;;;;;5019054;28;20414;-77
2024/01/04 05:54:38;;;;;;;1.20;1.20;;;8.80;99.90;;;;;;5014990;28;20042;-77
2024/01/04 05:57:05;;;;;;;0.10;0.10;;;8.80;99.90;;;;;;5017769;28;20033;-77
2024/01/04 05:59:30;;;;;;;1.30;0.55;;;8.70;99.90;;;;;;5017703;28;20041;-77
2024/01/04 06:01:56;;;;;;;0.28;0.28;;;8.80;99.90;;;;;;5023719;28;20029;-77
2024/01/04 06:04:22;;;;;;;0.05;0.05;;;8.60;99.90;;;;;;5021824;28;20064;-77
2024/01/04 06:06:48;;;;;;;0.10;0.10;;;8.50;99.90;;;;;;5024156;28;20111;-77
2024/01/04 06:09:13;;;;;;;0.10;0.10;;;8.40;99.90;;;;;;5020887;28;20033;-76
2024/01/04 06:11:39;;;;;;;0.10;0.10;;;8.20;99.90;;;;;;5021769;28;20112;-76
2024/01/04 06:14:05;;;;;;;0.20;0.20;;;8.10;99.90;;;;;;5023899;28;20099;-76
2024/01/04 06:16:32;;;;;;;0.10;0.10;;;8.10;99.90;;;;;;5022127;28;20036;-78
2024/01/04 06:18:58;;;;;;;0.77;0.77;;;8.10;99.90;;;;;;5024725;28;20025;-77
2024/01/04 06:21:24;;;;;;;0.10;0.10;;;8.00;99.90;;;;;;5021633;28;20756;-77
2024/01/04 06:23:50;;;;;;;0.10;0.10;;;8.00;99.90;;;;;;5020007;28;20049;-77
2024/01/04 06:26:20;;;;;;;0.32;0.32;;;8.10;99.90;;;;;;5021528;28;20283;-77
2024/01/04 06:28:45;;;;;;;0.10;0.10;;;8.20;99.90;;;;;;5022540;28;20037;-77
2024/01/04 06:31:11;;;;;;;0.10;0.10;;;8.30;99.90;;;;;;5023625;28;20516;-76
2024/01/04 06:33:37;;;;;;;0.15;0.15;;;8.40;99.90;;;;;;5025070;28;20136;-76
2024/01/04 06:36:03;;;;;;;2.60;1.60;;;8.50;99.90;;;;;;5023719;28;20473;-76
2024/01/04 06:38:29;;;;;;;0.10;0.10;;;8.50;99.90;;;;;;5022309;28;20476;-77
2024/01/04 06:40:58;;;;;;;0.10;0.10;;;8.60;99.90;;;;;;5022268;28;20524;-77
2024/01/04 06:43:25;;;;;;;0.17;0.17;;;8.70;99.90;;;;;;5021214;28;20702;-77
2024/01/04 06:45:51;;;;;;;0.10;0.10;;;8.70;99.90;;;;;;5019867;28;20052;-76
2024/01/04 06:48:16;;;;;;;0.10;0.10;;;8.80;99.90;;;;;;5023395;28;20045;-76
2024/01/04 06:50:43;;;;;;;0.10;0.10;;;8.70;99.90;;;;;;5019937;28;20029;-76
2024/01/04 06:53:14;;;;;;;0.10;0.10;;;8.80;99.90;;;;;;5020071;28;20029;-76
2024/01/04 06:55:46;;;;;;;0.00;0.00;;;8.80;99.90;;;;;;5012734;28;20104;-75
2024/01/04 06:58:12;;;;;;;0.00;0.00;;;8.80;99.90;;;;;;5022360;28;20025;-76
2024/01/04 07:00:37;;;;;;;0.10;0.10;;;8.80;99.90;;;;;;5023157;28;20018;-76
2024/01/04 07:03:03;;;;;;;24.30;3.50;;;8.80;99.90;;;;;;5023926;28;20064;-75
2024/01/04 07:05:30;;;;;;;0.10;0.10;;;8.80;99.90;;;;;;5021226;28;20033;-76
2024/01/04 07:07:56;;;;;;;0.10;0.10;;;8.80;99.90;;;;;;5017792;28;20573;-76
2024/01/04 07:10:21;;;;;;;0.10;0.10;;;8.80;99.90;;;;;;5021254;28;20030;-76
2024/01/04 07:12:47;;;;;;;0.10;0.10;;;8.90;99.90;;;;;;5020739;28;20029;-77
2024/01/04 07:15:13;;;;;;;0.10;0.10;;;8.80;99.90;;;;;;5020247;28;20041;-76
2024/01/04 07:17:39;;;;;;;0.28;0.28;;;8.70;99.90;;;;;;5016932;28;20833;-76
2024/01/04 07:20:06;;;;;;;0.08;0.08;;;8.80;99.90;;;;;;5018748;28;20030;-76
2024/01/04 07:22:32;;;;;;;;;;;8.80;99.90;;;;;;5020307;28;20599;-76
2024/01/04 07:24:58;;;;;;;0.10;0.10;;;8.80;99.90;;;;;;5020320;28;19921;-76
2024/01/04 07:27:23;;;;;;;0.10;0.10;;;8.80;99.90;;;;;;5018517;28;20038;-76
2024/01/04 07:29:50;;;;;;;0.10;0.10;;;8.80;99.90;;;;;;5021116;28;20021;-76
2024/01/04 07:32:18;;;;;;;0.10;0.10;;;8.80;99.90;;;;;;5013372;28;20108;-76
2024/01/04 07:34:44;;;;;;;0.10;0.10;;;8.80;99.90;;;;;;5021078;28;21115;-76
2024/01/04 07:37:10;;;;;;;0.10;0.10;;;8.70;99.90;;;;;;5016460;28;20069;-76
2024/01/04 07:39:36;;;;;;;0.10;0.10;;;8.70;99.90;;;;;;5019305;28;20042;-76
2024/01/04 07:42:02;;;;;;;0.10;0.10;;;8.60;99.90;;;;;;5010139;28;20124;-76
2024/01/04 07:44:27;;;;;;;0.10;0.10;;;8.70;99.90;;;;;;5019661;28;20041;-76
2024/01/04 07:46:53;;;;;;;0.50;0.50;;;8.70;99.90;;;;;;5021414;28;20087;-76
2024/01/04 07:49:19;;;;;;;0.10;0.10;;;8.70;99.90;;;;;;5021474;28;20040;-76
2024/01/04 07:51:45;;;;;;;0.00;0.00;;;8.70;99.90;;;;;;5016801;28;20044;-76
2024/01/04 07:54:11;;;;;;;0.10;0.10;;;8.70;99.90;;;;;;5018800;28;20034;-77
2024/01/04 07:56:37;;;;;;;0.10;0.10;;;8.80;99.90;;;;;;5022560;28;20024;-76
2024/01/04 07:59:03;;;;;;;0.10;0.10;;;8.80;99.90;;;;;;5021301;28;20045;-76
2024/01/04 08:01:29;;;;;;;0.10;0.10;;;8.70;99.90;;;;;;5022553;28;20116;-76
2024/01/04 08:03:54;;;;;;;0.10;0.10;;;8.80;99.90;;;;;;5021995;28;20029;-76
2024/01/04 08:06:20;;;;;;;0.43;0.43;;;8.70;99.90;;;;;;5021932;28;20577;-76
2024/01/04 08:08:45;;;;;;;0.10;0.10;;;8.80;99.90;;;;;;5022068;28;20037;-76
2024/01/04 08:11:11;;;;;;;0.13;0.13;;;8.90;99.90;;;;;;5017408;28;20087;-76
2024/01/04 08:13:38;;;;;;;0.10;0.10;;;8.90;99.90;;;;;;5012063;28;20028;-76
2024/01/04 08:16:04;;;;;;;0.10;0.10;;;8.90;99.90;;;;;;5015089;28;20032;-76
2024/01/04 08:18:31;;;;;;;0.10;0.10;;;8.90;99.90;;;;;;5021916;28;20099;-77
2024/01/04 08:20:56;;;;;;;0.70;0.45;;;8.80;99.90;;;;;;5011472;28;20366;-76
2024/01/04 08:23:22;;;;;;;0.03;0.03;;;9.00;99.90;;;;;;5019759;28;20033;-76
2024/01/04 08:25:48;;;;;;;0.10;0.10;;;8.90;99.90;;;;;;5021697;28;20038;-76
2024/01/04 08:28:14;;;;;;;0.10;0.10;;;8.90;99.90;;;;;;5021642;28;20049;-76
2024/01/04 08:30:39;;;;;;;0.10;0.10;;;8.80;99.90;;;;;;5021860;28;20029;-75
2024/01/04 08:33:05;;;;;;;0.10;0.10;;;8.70;99.90;;;;;;5021697;28;20034;-76
2024/01/04 08:35:31;;;;;;;0.55;0.55;;;8.80;99.90;;;;;;5010680;28;20044;-76
2024/01/04 08:37:57;;;;;;;0.28;0.28;;;8.80;99.90;;;;;;5016448;28;20878;-76
2024/01/04 08:40:22;;;;;;;0.10;0.10;;;8.80;99.90;;;;;;5021222;28;20061;-76
2024/01/04 08:42:48;;;;;;;0.57;0.57;;;8.70;99.90;;;;;;5021523;28;20038;-76
2024/01/04 08:45:13;;;;;;;0.10;0.10;;;8.80;99.90;;;;;;5021239;28;20081;-76
2024/01/04 08:47:40;;;;;;;0.10;0.10;;;8.70;99.90;;;;;;5025868;28;20037;-76
2024/01/04 08:50:06;;;;;;;0.10;0.10;;;8.80;99.90;;;;;;5025465;28;20025;-76
2024/01/04 08:52:32;;;;;;;0.10;0.10;;;8.90;99.90;;;;;;5024478;28;20030;-76
2024/01/04 08:54:58;;;;;;;0.10;0.10;;;8.90;99.90;;;;;;5025238;28;20753;-76
2024/01/04 08:57:24;;;;;;;0.10;0.10;;;9.00;99.90;;;;;;5025734;28;20067;-76
2024/01/04 08:59:49;;;;;;;0.10;0.10;;;9.00;99.90;;;;;;5025435;28;20034;-75
2024/01/04 09:02:15;;;;;;;0.10;0.10;;;9.00;99.90;;;;;;5017873;28;20775;-76
2024/01/04 09:04:41;;;;;;;0.10;0.10;;;9.10;99.90;;;;;;5024957;28;20030;-77
2024/01/04 09:07:08;;;;;;;3.40;3.10;;;9.20;99.90;;;;;;5024743;28;20038;-75
2024/01/04 09:09:34;;;;;;;0.30;0.30;;;9.10;99.90;;;;;;5025263;28;20079;-77
2024/01/04 09:12:00;;;;;;;0.10;0.10;;;9.10;99.90;;;;;;5024775;28;20021;-76
2024/01/04 09:14:26;;;;;;;0.10;0.10;;;9.10;99.90;;;;;;5024967;28;20036;-77
2024/01/04 09:16:51;;;;;;;0.10;0.10;;;9.00;99.90;;;;;;5024902;28;20484;-75
2024/01/04 09:19:19;;;;;;;0.10;0.10;;;9.10;99.90;;;;;;5025117;28;20754;-76
2024/01/04 09:21:47;;;;;;;0.63;0.63;;;9.20;99.90;;;;;;5025026;28;20039;-76
2024/01/04 09:24:13;;;;;;;0.20;0.20;;;9.30;99.90;;;;;;5024366;28;20021;-77
2024/01/04 09:26:43;;;;;;;0.10;0.10;;;9.40;99.90;;;;;;5024399;28;20095;-76
2024/01/04 09:29:09;;;;;;;0.00;0.00;;;9.40;99.90;;;;;;5023219;28;20029;-76
2024/01/04 09:31:36;;;;;;;0.10;0.10;;;9.40;99.90;;;;;;5022404;28;20026;-76
2024/01/04 09:34:02;;;;;;;0.47;0.47;;;9.70;99.90;;;;;;5024954;28;20021;-76
2024/01/04 09:36:27;;;;;;;0.10;0.10;;;9.80;99.90;;;;;;5023341;28;20135;-76
2024/01/04 09:38:53;;;;;;;0.10;0.10;;;9.90;99.90;;;;;;5019219;28;20032;-76
2024/01/04 09:41:30;;;;;;;0.10;0.10;;;10.00;99.90;;;;;;5023927;28;20057;-76
2024/01/04 09:43:57;;;;;;;0.00;0.00;;;10.20;99.90;;;;;;5046126;28;20095;-77
2024/01/04 09:46:32;;;;;;;3.15;1.08;;;10.30;99.90;;;;;;5023297;28;20648;-76
2024/01/04 09:49:01;;;;;;;0.10;0.10;;;10.20;99.90;;;;;;5023385;28;20030;-77
2024/01/04 09:51:37;;;;;;;0.00;0.00;;;10.40;99.90;;;;;;5015322;28;20028;-77
2024/01/04 09:54:09;;;;;;;0.00;0.00;;;10.50;99.90;;;;;;5016260;28;20040;-76
2024/01/04 09:56:42;;;;;;;0.10;0.10;;;10.10;99.90;;;;;;5022349;28;20064;-76
2024/01/04 09:59:09;;;;;;;0.20;0.20;;;10.40;99.90;;;;;;5024111;28;20025;-77
2024/01/04 10:01:36;;;;;;;0.00;0.00;;;10.60;99.90;;;;;;5021372;28;20113;-76
2024/01/04 10:04:12;;;;;;;0.10;0.10;;;10.70;99.90;;;;;;5024427;28;20088;-76
2024/01/04 10:06:40;;;;;;;0.10;0.10;;;10.50;99.90;;;;;;5024641;28;20061;-77
2024/01/04 10:09:18;;;;;;;0.00;0.00;;;10.70;99.90;;;;;;5023657;28;20124;-77
2024/01/04 10:12:05;;;;;;;0.00;0.00;;;10.60;99.90;;;;;;5018680;28;20405;-76
2024/01/04 10:14:32;;;;;;;0.10;0.10;;;10.40;99.90;;;;;;5024861;28;20030;-77
2024/01/04 10:16:59;;;;;;;;;;;10.20;99.90;;;;;;5027872;28;20072;-77
2024/01/04 10:19:28;;;;;;;0.00;0.00;;;10.30;99.90;;;;;;5027584;28;19909;-76
2024/01/04 10:22:02;;;;;;;0.03;0.03;;;10.30;99.90;;;;;;5024372;28;20132;-76
2024/01/04 10:24:29;;;;;;;0.00;0.00;;;10.20;99.90;;;;;;5024164;28;20029;-77
2024/01/04 10:26:57;;;;;;;0.00;0.00;;;10.30;99.90;;;;;;5023530;28;20497;-76
2024/01/04 10:29:27;;;;;;;0.10;0.10;;;10.30;99.90;;;;;;5021966;28;20471;-76
2024/01/04 10:32:00;;;;;;;0.10;0.10;;;10.20;99.90;;;;;;5011310;28;20033;-76
2024/01/04 10:34:26;;;;;;;0.00;0.00;;;10.20;99.90;;;;;;5023800;28;20049;-77
2024/01/04 10:36:52;;;;;;;0.10;0.10;;;10.10;99.90;;;;;;5011003;28;20061;-77
2024/01/04 10:39:20;;;;;;;0.07;0.07;;;10.30;99.90;;;;;;5026433;28;20025;-76
2024/01/04 10:42:01;;;;;;;0.10;0.10;;;10.30;99.90;;;;;;5022968;28;20057;-76
2024/01/04 10:44:32;;;;;;;0.00;0.00;;;10.30;99.90;;;;;;5021679;28;20026;-76
2024/01/04 10:46:59;;;;;;;0.10;0.10;;;10.30;99.90;;;;;;5013439;28;20951;-76
2024/01/04 10:49:25;;;;;;;0.20;0.20;;;10.40;99.90;;;;;;5013669;28;20030;-76
2024/01/04 10:51:53;;;;;;;0.10;0.10;;;10.40;99.90;;;;;;5024005;28;20037;-77
2024/01/04 10:54:22;;;;;;;0.03;0.03;;;10.30;99.90;;;;;;5020390;28;20038;-76
2024/01/04 10:56:48;;;;;;;0.10;0.10;;;10.20;99.90;;;;;;5023102;28;20894;-75
2024/01/04 10:59:16;;;;;;;0.10;0.10;;;10.10;99.90;;;;;;5023153;28;20052;-77
2024/01/04 11:01:43;;;;;;;0.10;0.10;;;10.20;99.90;;;;;;5014784;28;20026;-75
2024/01/04 11:04:11;;;;;;;0.03;0.03;;;10.40;99.90;;;;;;5021388;28;20049;-76
2024/01/04 11:06:40;;;;;;;0.00;0.00;;;10.50;99.90;;;;;;5017386;28;20088;-76
2024/01/04 11:09:09;;;;;;;0.20;0.20;;;10.40;99.90;;;;;;5021533;28;20025;-77
2024/01/04 11:11:35;;;;;;;0.10;0.10;;;10.60;99.90;;;;;;5023132;28;20075;-76
2024/01/04 11:14:04;;;;;;;0.00;0.00;;;11.20;99.90;;;;;;5016307;28;20258;-77
2024/01/04 11:16:45;;;;;;;0.10;0.10;;;11.40;99.90;;;;;;5017098;28;20037;-76
2024/01/04 11:19:43;;;;;;;0.08;0.08;;;11.60;99.90;;;;;;5015151;28;20516;-76
2024/01/04 11:22:38;;;;;;;0.00;0.00;;;11.90;99.90;;;;;;5017693;28;20049;-77
2024/01/04 11:25:26;;;;;;;0.00;0.00;;;11.40;99.90;;;;;;5014976;28;20473;-76
2024/01/04 11:27:52;;;;;;;0.08;0.08;;;11.60;99.90;;;;;;5022462;28;20030;-77
2024/01/04 11:30:18;;;;;;;0.00;0.00;;;11.90;99.90;;;;;;5018331;28;20038;-76
2024/01/04 11:32:44;;;;;;;0.10;0.10;;;11.80;99.90;;;;;;5004516;28;20030;-76
2024/01/04 11:35:15;;;;;;;0.00;0.00;;;11.30;99.90;;;;;;5017979;28;20033;-76
2024/01/04 11:37:45;;;;;;;0.10;0.10;;;11.40;99.90;;;;;;5015469;28;20108;-77
2024/01/04 11:40:11;;;;;;;0.10;0.10;;;11.40;99.60;;;;;;5022772;28;20825;-77
2024/01/04 11:42:38;;;;;;;0.10;0.10;;;11.30;99.50;;;;;;5022931;28;20120;-76
2024/01/04 11:45:15;;;;;;;0.00;0.00;;;11.40;99.10;;;;;;5019529;28;20038;-77
2024/01/04 11:47:47;;;;;;;0.00;0.00;;;11.50;99.00;;;;;;5022289;28;20053;-76
2024/01/04 11:50:18;;;;;;;0.20;0.20;;;11.30;99.10;;;;;;5022351;28;20788;-77
2024/01/04 11:52:45;;;;;;;0.32;0.32;;;11.40;98.80;;;;;;5024924;28;20100;-76
2024/01/04 11:55:21;;;;;;;0.00;0.00;;;11.30;98.20;;;;;;5017269;28;20041;-76
2024/01/04 11:57:47;;;;;;;0.00;0.00;;;11.50;98.00;;;;;;5012571;28;20036;-76
2024/01/04 12:00:16;;;;;;;0.00;0.00;;;11.20;98.20;;;;;;5022049;28;20034;-76
2024/01/04 12:02:42;;;;;;;0.00;0.00;;;11.20;98.10;;;;;;5022354;28;20084;-76
2024/01/04 12:05:08;;;;;;;0.07;0.07;;;11.20;97.70;;;;;;5021861;28;20026;-76
2024/01/04 12:07:36;;;;;;;0.10;0.10;;;11.10;98.20;;;;;;5022195;28;20028;-76
2024/01/04 12:10:02;;;;;;;0.10;0.10;;;11.00;98.00;;;;;;5022198;28;20488;-76
2024/01/04 12:12:28;;;;;;;0.10;0.10;;;11.00;97.90;;;;;;5014949;28;20695;-77
2024/01/04 12:14:53;;;;;;;1.23;0.77;;;11.10;98.10;;;;;;5021488;28;20044;-76
2024/01/04 12:17:19;;;;;;;0.00;0.00;;;10.90;98.50;;;;;;5022044;28;20033;-76
2024/01/04 12:19:45;;;;;;;0.00;0.00;;;11.00;98.10;;;;;;5015353;28;20033;-75
2024/01/04 12:22:11;;;;;;;0.10;0.10;;;11.10;97.70;;;;;;5017046;28;20116;-77
2024/01/04 12:24:42;;;;;;;0.00;0.00;;;11.30;97.40;;;;;;5018014;28;20029;-76
2024/01/04 12:27:08;;;;;;;0.00;0.00;;;11.20;97.40;;;;;;5020964;28;20511;-76
2024/01/04 12:29:34;;;;;;;0.00;0.00;;;10.90;97.60;;;;;;5021820;28;20022;-76
2024/01/04 12:32:00;;;;;;;0.10;0.10;;;10.80;98.20;;;;;;5022408;28;20034;-76
2024/01/04 12:34:25;;;;;;;0.00;0.00;;;10.90;97.30;;;;;;5021980;28;20041;-76
2024/01/04 12:36:51;;;;;;;0.00;0.00;;;11.10;97.40;;;;;;5019536;28;20076;-77
2024/01/04 12:39:16;;;;;;;0.10;0.10;;;11.60;96.70;;;;;;5019707;28;20021;-75
2024/01/04 12:41:47;;;;;;;0.00;0.00;;;11.70;95.70;;;;;;5018403;28;20077;-77
2024/01/04 12:44:14;;;;;;;0.00;0.00;;;11.70;95.50;;;;;;5013237;28;20037;-76
2024/01/04 12:46:41;;;;;;;0.80;0.80;;;11.80;95.60;;;;;;5012042;28;20513;-76
2024/01/04 12:49:11;;;;;;;0.52;0.52;;;12.00;95.50;;;;;;5022102;28;20036;-76
2024/01/04 12:51:40;;;;;;;0.03;0.03;;;11.80;95.00;;;;;;5020612;28;20033;-76
2024/01/04 12:54:11;;;;;;;0.10;0.10;;;11.90;95.00;;;;;;5015736;28;20032;-77